sensor_id;sensor_type;location;lat;lon;timestamp;temperature;humidity
29855;DHT22;16733;48.738;9.106;2022-08-01T00:01:57;21.70;51.40
29855;DHT22;16733;48.738;9.106;2022-08-01T00:04:25;21.70;51.20
29855;DHT22;16733;48.738;9.106;2022-08-01T00:06:51;21.70;51.30
29855;DHT22;16733;48.738;9.106;2022-08-01T00:09:17;21.70;51.40
29855;DHT22;16733;48.738;9.106;2022-08-01T00:11:42;21.70;51.40
29855;DHT22;16733;48.738;9.106;2022-08-01T00:14:08;21.70;51.40
29855;DHT22;16733;48.738;9.106;2022-08-01T00:16:35;21.70;51.50
29855;DHT22;16733;48.738;9.106;2022-08-01T00:19:01;21.70;51.60
29855;DHT22;16733;48.738;9.106;2022-08-01T00:24:49;21.70;51.80
29855;DHT22;16733;48.738;9.106;2022-08-01T00:27:14;21.60;51.70
29855;DHT22;16733;48.738;9.106;2022-08-01T00:33:03;21.60;52.00
29855;DHT22;16733;48.738;9.106;2022-08-01T00:35:28;21.60;51.80
29855;DHT22;16733;48.738;9.106;2022-08-01T00:38:10;21.60;51.80
29855;DHT22;16733;48.738;9.106;2022-08-01T00:40:36;21.60;51.90
29855;DHT22;16733;48.738;9.106;2022-08-01T00:43:02;21.60;51.80
29855;DHT22;16733;48.738;9.106;2022-08-01T00:45:28;21.60;51.80
29855;DHT22;16733;48.738;9.106;2022-08-01T00:47:53;21.60;51.90
29855;DHT22;16733;48.738;9.106;2022-08-01T00:50:19;21.60;51.90
29855;DHT22;16733;48.738;9.106;2022-08-01T00:52:46;21.60;52.00
29855;DHT22;16733;48.738;9.106;2022-08-01T00:55:12;21.60;52.00
29855;DHT22;16733;48.738;9.106;2022-08-01T00:57:39;21.60;52.60
29855;DHT22;16733;48.738;9.106;2022-08-01T01:00:06;21.60;52.10
29855;DHT22;16733;48.738;9.106;2022-08-01T01:02:32;21.60;52.10
29855;DHT22;16733;48.738;9.106;2022-08-01T01:04:59;21.60;52.20
29855;DHT22;16733;48.738;9.106;2022-08-01T01:10:33;21.60;52.40
29855;DHT22;16733;48.738;9.106;2022-08-01T01:13:06;21.60;52.50
29855;DHT22;16733;48.738;9.106;2022-08-01T01:15:43;21.60;52.50
29855;DHT22;16733;48.738;9.106;2022-08-01T01:18:20;21.60;52.60
29855;DHT22;16733;48.738;9.106;2022-08-01T01:21:42;21.60;52.60
29855;DHT22;16733;48.738;9.106;2022-08-01T01:27:21;21.60;52.80
29855;DHT22;16733;48.738;9.106;2022-08-01T01:29:51;21.50;52.80
29855;DHT22;16733;48.738;9.106;2022-08-01T01:35:45;21.50;53.00
29855;DHT22;16733;48.738;9.106;2022-08-01T01:38:15;21.50;53.00
29855;DHT22;16733;48.738;9.106;2022-08-01T01:40:43;21.50;53.00
29855;DHT22;16733;48.738;9.106;2022-08-01T01:43:10;21.50;53.00
29855;DHT22;16733;48.738;9.106;2022-08-01T01:45:37;21.50;53.20
29855;DHT22;16733;48.738;9.106;2022-08-01T01:48:05;21.40;53.30
29855;DHT22;16733;48.738;9.106;2022-08-01T01:50:32;21.40;53.50
29855;DHT22;16733;48.738;9.106;2022-08-01T01:52:59;21.40;53.70
29855;DHT22;16733;48.738;9.106;2022-08-01T01:55:26;21.40;53.80
29855;DHT22;16733;48.738;9.106;2022-08-01T01:57:53;21.40;53.90
29855;DHT22;16733;48.738;9.106;2022-08-01T02:00:21;21.30;54.00
29855;DHT22;16733;48.738;9.106;2022-08-01T02:02:47;21.30;54.70
29855;DHT22;16733;48.738;9.106;2022-08-01T02:05:13;21.30;54.20
29855;DHT22;16733;48.738;9.106;2022-08-01T02:11:02;21.30;54.40
29855;DHT22;16733;48.738;9.106;2022-08-01T02:16:49;21.20;54.40
29855;DHT22;16733;48.738;9.106;2022-08-01T02:19:18;21.10;54.50
29855;DHT22;16733;48.738;9.106;2022-08-01T02:22:10;21.10;54.70
29855;DHT22;16733;48.738;9.106;2022-08-01T02:24:37;21.10;54.80
29855;DHT22;16733;48.738;9.106;2022-08-01T02:27:11;21.10;54.90
29855;DHT22;16733;48.738;9.106;2022-08-01T02:29:42;21.10;55.00
29855;DHT22;16733;48.738;9.106;2022-08-01T02:32:13;21.10;55.10
29855;DHT22;16733;48.738;9.106;2022-08-01T02:38:28;21.10;55.30
29855;DHT22;16733;48.738;9.106;2022-08-01T02:44:23;21.00;55.50
29855;DHT22;16733;48.738;9.106;2022-08-01T02:46:54;21.00;55.50
29855;DHT22;16733;48.738;9.106;2022-08-01T02:52:47;20.70;56.00
29855;DHT22;16733;48.738;9.106;2022-08-01T02:55:14;20.60;56.10
29855;DHT22;16733;48.738;9.106;2022-08-01T02:57:40;20.50;56.20
29855;DHT22;16733;48.738;9.106;2022-08-01T03:00:07;20.40;56.40
29855;DHT22;16733;48.738;9.106;2022-08-01T03:02:37;20.40;56.50
29855;DHT22;16733;48.738;9.106;2022-08-01T03:05:04;20.30;56.60
29855;DHT22;16733;48.738;9.106;2022-08-01T03:07:30;20.30;56.80
29855;DHT22;16733;48.738;9.106;2022-08-01T03:09:57;20.20;56.90
29855;DHT22;16733;48.738;9.106;2022-08-01T03:15:46;20.20;57.30
29855;DHT22;16733;48.738;9.106;2022-08-01T03:18:13;20.10;57.10
29855;DHT22;16733;48.738;9.106;2022-08-01T03:24:03;20.10;57.70
29855;DHT22;16733;48.738;9.106;2022-08-01T03:26:33;20.00;57.50
29855;DHT22;16733;48.738;9.106;2022-08-01T03:32:22;20.00;58.00
29855;DHT22;16733;48.738;9.106;2022-08-01T03:34:48;20.00;57.80
29855;DHT22;16733;48.738;9.106;2022-08-01T03:41:09;20.10;58.30
29855;DHT22;16733;48.738;9.106;2022-08-01T03:43:40;20.10;58.30
29855;DHT22;16733;48.738;9.106;2022-08-01T03:46:13;20.10;58.20
29855;DHT22;16733;48.738;9.106;2022-08-01T03:48:47;20.10;58.30
29855;DHT22;16733;48.738;9.106;2022-08-01T03:54:38;20.20;58.60
29855;DHT22;16733;48.738;9.106;2022-08-01T04:00:28;20.20;58.70
29855;DHT22;16733;48.738;9.106;2022-08-01T04:02:55;20.20;58.50
29855;DHT22;16733;48.738;9.106;2022-08-01T04:12:05;20.20;58.90
29855;DHT22;16733;48.738;9.106;2022-08-01T04:14:31;20.20;58.90
29855;DHT22;16733;48.738;9.106;2022-08-01T04:16:56;20.20;59.00
29855;DHT22;16733;48.738;9.106;2022-08-01T04:19:22;20.20;59.20
29855;DHT22;16733;48.738;9.106;2022-08-01T04:21:48;20.20;59.30
29855;DHT22;16733;48.738;9.106;2022-08-01T04:24:17;20.30;59.40
29855;DHT22;16733;48.738;9.106;2022-08-01T04:26:45;20.30;59.50
29855;DHT22;16733;48.738;9.106;2022-08-01T04:32:37;20.30;59.70
29855;DHT22;16733;48.738;9.106;2022-08-01T04:35:06;20.40;59.50
29855;DHT22;16733;48.738;9.106;2022-08-01T04:40:54;20.40;59.80
29855;DHT22;16733;48.738;9.106;2022-08-01T04:43:20;20.40;59.60
29855;DHT22;16733;48.738;9.106;2022-08-01T04:45:47;20.40;59.70
29855;DHT22;16733;48.738;9.106;2022-08-01T04:48:15;20.50;59.90
29855;DHT22;16733;48.738;9.106;2022-08-01T04:50:41;20.50;60.00
29855;DHT22;16733;48.738;9.106;2022-08-01T04:53:15;20.50;60.00
29855;DHT22;16733;48.738;9.106;2022-08-01T04:55:42;20.60;60.30
29855;DHT22;16733;48.738;9.106;2022-08-01T04:58:10;20.60;60.30
29855;DHT22;16733;48.738;9.106;2022-08-01T05:00:35;20.60;60.30
29855;DHT22;16733;48.738;9.106;2022-08-01T05:06:23;20.70;60.70
29855;DHT22;16733;48.738;9.106;2022-08-01T05:12:11;20.70;60.70
29855;DHT22;16733;48.738;9.106;2022-08-01T05:14:36;20.70;60.50
29855;DHT22;16733;48.738;9.106;2022-08-01T05:17:03;20.70;60.60
29855;DHT22;16733;48.738;9.106;2022-08-01T05:19:47;20.70;60.80
29855;DHT22;16733;48.738;9.106;2022-08-01T05:22:13;20.80;61.10
29855;DHT22;16733;48.738;9.106;2022-08-01T05:24:39;20.80;60.80
29855;DHT22;16733;48.738;9.106;2022-08-01T05:27:05;20.90;60.90
29855;DHT22;16733;48.738;9.106;2022-08-01T05:29:33;21.00;60.90
29855;DHT22;16733;48.738;9.106;2022-08-01T05:38:43;21.20;60.90
29855;DHT22;16733;48.738;9.106;2022-08-01T05:47:53;21.30;60.80
29855;DHT22;16733;48.738;9.106;2022-08-01T05:50:18;21.40;60.80
29855;DHT22;16733;48.738;9.106;2022-08-01T05:56:06;21.50;61.10
29855;DHT22;16733;48.738;9.106;2022-08-01T05:58:32;21.60;60.80
29855;DHT22;16733;48.738;9.106;2022-08-01T06:04:20;21.70;61.00
29855;DHT22;16733;48.738;9.106;2022-08-01T06:06:45;21.80;60.90
29855;DHT22;16733;48.738;9.106;2022-08-01T06:12:14;21.90;61.00
29855;DHT22;16733;48.738;9.106;2022-08-01T06:14:39;22.00;60.80
29855;DHT22;16733;48.738;9.106;2022-08-01T06:17:05;22.00;60.70
29855;DHT22;16733;48.738;9.106;2022-08-01T06:19:30;22.10;60.70
29855;DHT22;16733;48.738;9.106;2022-08-01T06:32:03;22.40;60.70
29855;DHT22;16733;48.738;9.106;2022-08-01T06:37:50;22.50;60.60
29855;DHT22;16733;48.738;9.106;2022-08-01T06:40:16;22.50;60.40
29855;DHT22;16733;48.738;9.106;2022-08-01T06:46:05;22.60;60.70
29855;DHT22;16733;48.738;9.106;2022-08-01T06:48:30;22.70;60.60
29855;DHT22;16733;48.738;9.106;2022-08-01T06:50:56;22.70;60.70
29855;DHT22;16733;48.738;9.106;2022-08-01T06:53:35;22.80;60.70
29855;DHT22;16733;48.738;9.106;2022-08-01T06:56:01;22.80;61.30
29855;DHT22;16733;48.738;9.106;2022-08-01T06:58:27;22.90;60.40
29855;DHT22;16733;48.738;9.106;2022-08-01T07:00:53;22.90;60.40
29855;DHT22;16733;48.738;9.106;2022-08-01T07:03:18;22.90;60.40
29855;DHT22;16733;48.738;9.106;2022-08-01T07:09:06;23.10;60.30
29855;DHT22;16733;48.738;9.106;2022-08-01T07:11:31;23.20;60.20
29855;DHT22;16733;48.738;9.106;2022-08-01T07:13:57;23.20;60.00
29855;DHT22;16733;48.738;9.106;2022-08-01T07:16:23;23.30;59.90
29855;DHT22;16733;48.738;9.106;2022-08-01T07:22:11;23.30;59.70
29855;DHT22;16733;48.738;9.106;2022-08-01T07:27:58;23.50;59.70
29855;DHT22;16733;48.738;9.106;2022-08-01T07:30:24;23.50;59.60
29855;DHT22;16733;48.738;9.106;2022-08-01T07:36:12;23.50;59.50
29855;DHT22;16733;48.738;9.106;2022-08-01T07:38:38;23.40;59.40
29855;DHT22;16733;48.738;9.106;2022-08-01T07:41:04;23.50;59.40
29855;DHT22;16733;48.738;9.106;2022-08-01T07:43:29;23.50;59.40
29855;DHT22;16733;48.738;9.106;2022-08-01T07:45:55;23.60;59.20
29855;DHT22;16733;48.738;9.106;2022-08-01T07:48:20;23.60;59.00
29855;DHT22;16733;48.738;9.106;2022-08-01T07:50:52;23.70;59.00
29855;DHT22;16733;48.738;9.106;2022-08-01T07:53:18;23.80;58.90
29855;DHT22;16733;48.738;9.106;2022-08-01T07:59:06;24.10;58.50
29855;DHT22;16733;48.738;9.106;2022-08-01T08:01:31;24.20;58.50
29855;DHT22;16733;48.738;9.106;2022-08-01T08:03:57;24.20;58.40
29855;DHT22;16733;48.738;9.106;2022-08-01T08:06:22;24.30;58.40
29855;DHT22;16733;48.738;9.106;2022-08-01T08:08:48;24.30;58.20
29855;DHT22;16733;48.738;9.106;2022-08-01T08:11:14;24.40;58.10
29855;DHT22;16733;48.738;9.106;2022-08-01T08:20:23;24.80;57.60
29855;DHT22;16733;48.738;9.106;2022-08-01T08:23:07;25.00;57.50
29855;DHT22;16733;48.738;9.106;2022-08-01T08:29:15;25.30;56.90
29855;DHT22;16733;48.738;9.106;2022-08-01T08:31:41;25.50;57.00
29855;DHT22;16733;48.738;9.106;2022-08-01T08:34:07;25.50;56.60
29855;DHT22;16733;48.738;9.106;2022-08-01T08:36:33;25.50;56.50
29855;DHT22;16733;48.738;9.106;2022-08-01T08:38:59;25.50;56.40
29855;DHT22;16733;48.738;9.106;2022-08-01T08:41:26;25.40;56.90
29855;DHT22;16733;48.738;9.106;2022-08-01T08:43:51;25.40;56.40
29855;DHT22;16733;48.738;9.106;2022-08-01T08:46:18;25.40;56.30
29855;DHT22;16733;48.738;9.106;2022-08-01T08:48:44;25.40;56.20
29855;DHT22;16733;48.738;9.106;2022-08-01T08:51:10;25.50;56.20
29855;DHT22;16733;48.738;9.106;2022-08-01T08:53:39;25.60;56.60
29855;DHT22;16733;48.738;9.106;2022-08-01T08:56:08;25.60;55.70
29855;DHT22;16733;48.738;9.106;2022-08-01T08:58:36;25.40;55.80
29855;DHT22;16733;48.738;9.106;2022-08-01T09:04:26;25.70;55.60
29855;DHT22;16733;48.738;9.106;2022-08-01T09:06:52;25.90;55.40
29855;DHT22;16733;48.738;9.106;2022-08-01T09:09:18;25.90;55.30
29855;DHT22;16733;48.738;9.106;2022-08-01T09:15:06;26.10;55.00
29855;DHT22;16733;48.738;9.106;2022-08-01T09:24:16;26.10;54.90
29855;DHT22;16733;48.738;9.106;2022-08-01T09:26:43;26.10;54.90
29855;DHT22;16733;48.738;9.106;2022-08-01T09:32:32;26.50;54.40
29855;DHT22;16733;48.738;9.106;2022-08-01T09:35:28;26.60;54.60
29855;DHT22;16733;48.738;9.106;2022-08-01T09:40:55;26.90;54.10
29855;DHT22;16733;48.738;9.106;2022-08-01T09:43:23;27.00;53.90
29855;DHT22;16733;48.738;9.106;2022-08-01T09:45:49;26.90;53.60
29855;DHT22;16733;48.738;9.106;2022-08-01T09:55:06;26.50;53.70
29855;DHT22;16733;48.738;9.106;2022-08-01T10:01:00;26.50;53.40
29855;DHT22;16733;48.738;9.106;2022-08-01T10:06:28;26.50;53.50
29855;DHT22;16733;48.738;9.106;2022-08-01T10:12:19;26.30;53.60
29855;DHT22;16733;48.738;9.106;2022-08-01T10:14:47;26.30;53.70
29855;DHT22;16733;48.738;9.106;2022-08-01T10:20:37;26.20;53.70
29855;DHT22;16733;48.738;9.106;2022-08-01T10:23:04;26.30;53.80
29855;DHT22;16733;48.738;9.106;2022-08-01T10:25:34;26.20;53.50
29855;DHT22;16733;48.738;9.106;2022-08-01T10:31:23;25.80;53.70
29855;DHT22;16733;48.738;9.106;2022-08-01T10:37:13;25.80;54.00
29855;DHT22;16733;48.738;9.106;2022-08-01T10:39:39;26.00;53.90
29855;DHT22;16733;48.738;9.106;2022-08-01T10:49:00;26.40;53.00
29855;DHT22;16733;48.738;9.106;2022-08-01T10:55:02;26.10;53.20
29855;DHT22;16733;48.738;9.106;2022-08-01T10:57:45;25.90;53.40
29855;DHT22;16733;48.738;9.106;2022-08-01T11:00:18;25.90;53.30
29855;DHT22;16733;48.738;9.106;2022-08-01T11:12:39;26.10;53.30
29855;DHT22;16733;48.738;9.106;2022-08-01T11:20:56;26.50;52.70
29855;DHT22;16733;48.738;9.106;2022-08-01T11:23:23;26.40;52.60
29855;DHT22;16733;48.738;9.106;2022-08-01T11:30:44;26.10;52.80
29855;DHT22;16733;48.738;9.106;2022-08-01T11:48:25;26.20;52.50
29855;DHT22;16733;48.738;9.106;2022-08-01T11:54:12;26.50;52.20
29855;DHT22;16733;48.738;9.106;2022-08-01T11:56:39;26.50;52.10
29855;DHT22;16733;48.738;9.106;2022-08-01T11:59:07;26.60;51.90
29855;DHT22;16733;48.738;9.106;2022-08-01T12:01:34;26.60;51.80
29855;DHT22;16733;48.738;9.106;2022-08-01T12:03:59;26.60;51.70
29855;DHT22;16733;48.738;9.106;2022-08-01T12:06:28;26.70;52.30
29855;DHT22;16733;48.738;9.106;2022-08-01T12:08:54;26.70;51.70
29855;DHT22;16733;48.738;9.106;2022-08-01T12:11:20;26.70;51.70
29855;DHT22;16733;48.738;9.106;2022-08-01T12:13:45;26.80;51.50
29855;DHT22;16733;48.738;9.106;2022-08-01T12:16:27;26.80;51.30
29855;DHT22;16733;48.738;9.106;2022-08-01T12:18:53;26.90;51.30
29855;DHT22;16733;48.738;9.106;2022-08-01T12:21:18;26.90;51.10
29855;DHT22;16733;48.738;9.106;2022-08-01T12:33:51;26.90;50.90
29855;DHT22;16733;48.738;9.106;2022-08-01T12:36:27;26.80;51.00
29855;DHT22;16733;48.738;9.106;2022-08-01T12:42:15;27.20;50.40
29855;DHT22;16733;48.738;9.106;2022-08-01T12:44:44;27.10;50.40
29855;DHT22;16733;48.738;9.106;2022-08-01T12:47:11;27.00;50.40
29855;DHT22;16733;48.738;9.106;2022-08-01T12:49:38;27.00;50.50
29855;DHT22;16733;48.738;9.106;2022-08-01T12:52:04;27.00;50.60
29855;DHT22;16733;48.738;9.106;2022-08-01T12:54:30;27.10;50.50
29855;DHT22;16733;48.738;9.106;2022-08-01T12:56:56;27.10;51.00
29855;DHT22;16733;48.738;9.106;2022-08-01T12:59:25;27.10;50.50
29855;DHT22;16733;48.738;9.106;2022-08-01T13:05:15;27.50;50.10
29855;DHT22;16733;48.738;9.106;2022-08-01T13:07:48;27.90;50.00
29855;DHT22;16733;48.738;9.106;2022-08-01T13:13:49;28.40;49.20
29855;DHT22;16733;48.738;9.106;2022-08-01T13:19:44;28.20;48.80
29855;DHT22;16733;48.738;9.106;2022-08-01T13:22:10;28.00;49.20
29855;DHT22;16733;48.738;9.106;2022-08-01T13:24:36;28.00;49.30
29855;DHT22;16733;48.738;9.106;2022-08-01T13:30:23;27.90;49.10
29855;DHT22;16733;48.738;9.106;2022-08-01T13:32:59;27.90;49.20
29855;DHT22;16733;48.738;9.106;2022-08-01T13:38:46;28.40;48.90
29855;DHT22;16733;48.738;9.106;2022-08-01T13:41:33;28.40;48.80
29855;DHT22;16733;48.738;9.106;2022-08-01T13:43:59;28.50;49.20
29855;DHT22;16733;48.738;9.106;2022-08-01T13:46:24;28.70;48.60
29855;DHT22;16733;48.738;9.106;2022-08-01T13:48:50;29.00;48.40
29855;DHT22;16733;48.738;9.106;2022-08-01T13:51:16;29.20;48.10
29855;DHT22;16733;48.738;9.106;2022-08-01T13:53:41;29.10;47.60
29855;DHT22;16733;48.738;9.106;2022-08-01T13:59:29;29.10;47.60
29855;DHT22;16733;48.738;9.106;2022-08-01T14:01:55;29.20;47.50
29855;DHT22;16733;48.738;9.106;2022-08-01T14:04:20;29.10;47.20
29855;DHT22;16733;48.738;9.106;2022-08-01T14:06:46;29.00;47.90
29855;DHT22;16733;48.738;9.106;2022-08-01T14:09:12;29.10;47.20
29855;DHT22;16733;48.738;9.106;2022-08-01T14:18:22;29.10;47.00
29855;DHT22;16733;48.738;9.106;2022-08-01T14:20:48;29.10;47.00
29855;DHT22;16733;48.738;9.106;2022-08-01T14:23:16;28.90;47.00
29855;DHT22;16733;48.738;9.106;2022-08-01T14:29:03;29.20;46.80
29855;DHT22;16733;48.738;9.106;2022-08-01T14:34:51;29.90;46.40
29855;DHT22;16733;48.738;9.106;2022-08-01T14:37:17;30.90;45.90
29855;DHT22;16733;48.738;9.106;2022-08-01T14:39:42;31.50;44.90
29855;DHT22;16733;48.738;9.106;2022-08-01T14:42:08;32.10;44.30
29855;DHT22;16733;48.738;9.106;2022-08-01T14:44:33;32.70;43.40
29855;DHT22;16733;48.738;9.106;2022-08-01T14:46:59;33.20;42.60
29855;DHT22;16733;48.738;9.106;2022-08-01T14:49:25;33.90;41.80
29855;DHT22;16733;48.738;9.106;2022-08-01T14:51:50;34.00;41.60
29855;DHT22;16733;48.738;9.106;2022-08-01T14:57:39;32.90;41.90
29855;DHT22;16733;48.738;9.106;2022-08-01T15:03:26;33.80;41.50
29855;DHT22;16733;48.738;9.106;2022-08-01T15:12:36;34.20;41.20
29855;DHT22;16733;48.738;9.106;2022-08-01T15:25:09;32.10;41.40
29855;DHT22;16733;48.738;9.106;2022-08-01T15:30:57;30.90;41.90
29855;DHT22;16733;48.738;9.106;2022-08-01T15:33:26;30.30;42.50
29855;DHT22;16733;48.738;9.106;2022-08-01T15:35:52;30.00;42.70
29855;DHT22;16733;48.738;9.106;2022-08-01T15:38:18;29.60;42.70
29855;DHT22;16733;48.738;9.106;2022-08-01T15:40:44;29.40;43.00
29855;DHT22;16733;48.738;9.106;2022-08-01T15:43:10;29.30;43.20
29855;DHT22;16733;48.738;9.106;2022-08-01T15:45:35;29.20;43.20
29855;DHT22;16733;48.738;9.106;2022-08-01T15:48:01;29.10;43.20
29855;DHT22;16733;48.738;9.106;2022-08-01T15:57:11;28.70;43.70
29855;DHT22;16733;48.738;9.106;2022-08-01T15:59:36;28.50;43.60
29855;DHT22;16733;48.738;9.106;2022-08-01T16:08:46;28.20;44.00
29855;DHT22;16733;48.738;9.106;2022-08-01T16:11:12;28.20;44.10
29855;DHT22;16733;48.738;9.106;2022-08-01T16:16:59;28.10;44.30
29855;DHT22;16733;48.738;9.106;2022-08-01T16:19:25;28.00;44.30
29855;DHT22;16733;48.738;9.106;2022-08-01T16:25:13;28.00;44.70
29855;DHT22;16733;48.738;9.106;2022-08-01T16:27:39;27.90;44.60
29855;DHT22;16733;48.738;9.106;2022-08-01T16:33:27;27.90;45.00
29855;DHT22;16733;48.738;9.106;2022-08-01T16:35:52;27.80;45.00
29855;DHT22;16733;48.738;9.106;2022-08-01T16:38:19;27.80;45.10
29855;DHT22;16733;48.738;9.106;2022-08-01T16:40:46;27.80;45.10
29855;DHT22;16733;48.738;9.106;2022-08-01T16:43:13;27.70;45.20
29855;DHT22;16733;48.738;9.106;2022-08-01T16:52:23;27.40;45.60
29855;DHT22;16733;48.738;9.106;2022-08-01T16:54:48;27.30;45.70
29855;DHT22;16733;48.738;9.106;2022-08-01T17:00:36;27.20;46.00
29855;DHT22;16733;48.738;9.106;2022-08-01T17:03:03;27.20;46.00
29855;DHT22;16733;48.738;9.106;2022-08-01T17:05:29;27.10;46.10
29855;DHT22;16733;48.738;9.106;2022-08-01T17:11:18;27.10;46.30
29855;DHT22;16733;48.738;9.106;2022-08-01T17:13:43;27.00;46.30
29855;DHT22;16733;48.738;9.106;2022-08-01T17:19:31;26.90;46.70
29855;DHT22;16733;48.738;9.106;2022-08-01T17:21:57;26.90;46.60
29855;DHT22;16733;48.738;9.106;2022-08-01T17:27:44;26.90;46.80
29855;DHT22;16733;48.738;9.106;2022-08-01T17:30:10;26.90;46.90
29855;DHT22;16733;48.738;9.106;2022-08-01T17:42:44;26.50;47.30
29855;DHT22;16733;48.738;9.106;2022-08-01T17:45:11;26.40;47.50
29855;DHT22;16733;48.738;9.106;2022-08-01T17:50:58;26.20;47.80
29855;DHT22;16733;48.738;9.106;2022-08-01T17:56:46;26.10;48.00
29855;DHT22;16733;48.738;9.106;2022-08-01T17:59:11;26.00;48.10
29855;DHT22;16733;48.738;9.106;2022-08-01T18:01:37;25.90;48.30
29855;DHT22;16733;48.738;9.106;2022-08-01T18:07:24;25.90;48.70
29855;DHT22;16733;48.738;9.106;2022-08-01T18:09:50;25.80;48.50
29855;DHT22;16733;48.738;9.106;2022-08-01T18:12:16;25.80;48.70
29855;DHT22;16733;48.738;9.106;2022-08-01T18:14:43;25.80;48.70
29855;DHT22;16733;48.738;9.106;2022-08-01T18:17:09;25.80;48.90
29855;DHT22;16733;48.738;9.106;2022-08-01T18:19:35;25.70;48.90
29855;DHT22;16733;48.738;9.106;2022-08-01T18:22:01;25.70;49.00
29855;DHT22;16733;48.738;9.106;2022-08-01T18:24:26;25.70;49.20
29855;DHT22;16733;48.738;9.106;2022-08-01T18:26:52;25.70;49.30
29855;DHT22;16733;48.738;9.106;2022-08-01T18:29:19;25.60;49.30
29855;DHT22;16733;48.738;9.106;2022-08-01T18:35:21;25.40;49.70
29855;DHT22;16733;48.738;9.106;2022-08-01T18:41:09;25.30;49.90
29855;DHT22;16733;48.738;9.106;2022-08-01T18:46:57;25.10;50.20
29855;DHT22;16733;48.738;9.106;2022-08-01T18:49:23;25.10;50.70
29855;DHT22;16733;48.738;9.106;2022-08-01T18:55:10;25.00;50.50
29855;DHT22;16733;48.738;9.106;2022-08-01T18:57:36;25.00;50.40
29855;DHT22;16733;48.738;9.106;2022-08-01T19:03:24;25.00;51.00
29855;DHT22;16733;48.738;9.106;2022-08-01T19:05:49;24.80;51.20
29855;DHT22;16733;48.738;9.106;2022-08-01T19:08:15;24.60;51.80
29855;DHT22;16733;48.738;9.106;2022-08-01T19:10:41;24.50;52.30
29855;DHT22;16733;48.738;9.106;2022-08-01T19:13:07;24.30;52.90
29855;DHT22;16733;48.738;9.106;2022-08-01T19:15:34;24.10;53.50
29855;DHT22;16733;48.738;9.106;2022-08-01T19:18:03;23.90;54.10
29855;DHT22;16733;48.738;9.106;2022-08-01T19:20:29;23.80;54.70
29855;DHT22;16733;48.738;9.106;2022-08-01T19:22:55;23.70;55.20
29855;DHT22;16733;48.738;9.106;2022-08-01T19:28:45;23.70;55.90
29855;DHT22;16733;48.738;9.106;2022-08-01T19:31:14;23.60;55.60
29855;DHT22;16733;48.738;9.106;2022-08-01T19:37:03;23.30;56.80
29855;DHT22;16733;48.738;9.106;2022-08-01T19:39:29;23.00;56.80
29855;DHT22;16733;48.738;9.106;2022-08-01T19:41:56;22.90;57.60
29855;DHT22;16733;48.738;9.106;2022-08-01T19:44:23;22.80;58.30
29855;DHT22;16733;48.738;9.106;2022-08-01T19:46:50;22.80;58.80
29855;DHT22;16733;48.738;9.106;2022-08-01T19:49:18;22.80;59.10
29855;DHT22;16733;48.738;9.106;2022-08-01T19:57:36;22.50;61.10
29855;DHT22;16733;48.738;9.106;2022-08-01T20:00:03;22.30;61.10
29855;DHT22;16733;48.738;9.106;2022-08-01T20:02:30;22.10;61.90
29855;DHT22;16733;48.738;9.106;2022-08-01T20:04:57;21.90;62.70
29855;DHT22;16733;48.738;9.106;2022-08-01T20:10:46;21.80;64.50
29855;DHT22;16733;48.738;9.106;2022-08-01T20:16:34;21.70;65.00
29855;DHT22;16733;48.738;9.106;2022-08-01T20:19:02;21.60;64.70
29855;DHT22;16733;48.738;9.106;2022-08-01T20:21:29;21.60;65.10
29855;DHT22;16733;48.738;9.106;2022-08-01T20:27:25;21.70;66.20
29855;DHT22;16733;48.738;9.106;2022-08-01T20:29:52;21.60;65.70
29855;DHT22;16733;48.738;9.106;2022-08-01T20:35:43;21.60;66.40
29855;DHT22;16733;48.738;9.106;2022-08-01T20:41:31;21.70;66.80
29855;DHT22;16733;48.738;9.106;2022-08-01T20:43:57;21.80;66.10
29855;DHT22;16733;48.738;9.106;2022-08-01T20:46:27;21.90;66.30
29855;DHT22;16733;48.738;9.106;2022-08-01T20:48:53;21.90;66.40
29855;DHT22;16733;48.738;9.106;2022-08-01T20:51:25;21.90;66.40
29855;DHT22;16733;48.738;9.106;2022-08-01T20:53:51;21.90;66.80
29855;DHT22;16733;48.738;9.106;2022-08-01T20:59:48;21.70;67.60
29855;DHT22;16733;48.738;9.106;2022-08-01T21:05:33;21.70;67.80
29855;DHT22;16733;48.738;9.106;2022-08-01T21:08:06;21.70;67.60
29855;DHT22;16733;48.738;9.106;2022-08-01T21:13:58;21.70;67.90
29855;DHT22;16733;48.738;9.106;2022-08-01T21:16:28;21.60;67.80
29855;DHT22;16733;48.738;9.106;2022-08-01T21:19:00;21.60;68.10
29855;DHT22;16733;48.738;9.106;2022-08-01T21:21:31;21.60;68.30
29855;DHT22;16733;48.738;9.106;2022-08-01T21:24:04;21.50;68.40
29855;DHT22;16733;48.738;9.106;2022-08-01T21:26:33;21.50;68.70
29855;DHT22;16733;48.738;9.106;2022-08-01T21:29:02;21.60;68.80
29855;DHT22;16733;48.738;9.106;2022-08-01T21:31:32;21.50;68.80
29855;DHT22;16733;48.738;9.106;2022-08-01T21:33:59;21.40;69.10
29855;DHT22;16733;48.738;9.106;2022-08-01T21:39:50;21.40;69.60
29855;DHT22;16733;48.738;9.106;2022-08-01T21:42:16;21.40;70.10
29855;DHT22;16733;48.738;9.106;2022-08-01T21:48:04;21.30;70.00
29855;DHT22;16733;48.738;9.106;2022-08-01T21:50:40;21.10;70.00
29855;DHT22;16733;48.738;9.106;2022-08-01T21:56:06;21.00;71.20
29855;DHT22;16733;48.738;9.106;2022-08-01T21:59:09;21.00;71.30
29855;DHT22;16733;48.738;9.106;2022-08-01T22:02:07;21.00;71.60
29855;DHT22;16733;48.738;9.106;2022-08-01T22:07:08;20.90;71.70
29855;DHT22;16733;48.738;9.106;2022-08-01T22:09:37;20.80;72.00
29855;DHT22;16733;48.738;9.106;2022-08-01T22:12:17;20.70;72.40
29855;DHT22;16733;48.738;9.106;2022-08-01T22:21:27;20.70;73.20
29855;DHT22;16733;48.738;9.106;2022-08-01T22:23:54;20.60;73.00
29855;DHT22;16733;48.738;9.106;2022-08-01T22:26:20;20.50;73.50
29855;DHT22;16733;48.738;9.106;2022-08-01T22:32:09;20.40;74.50
29855;DHT22;16733;48.738;9.106;2022-08-01T22:34:34;20.40;74.30
29855;DHT22;16733;48.738;9.106;2022-08-01T22:37:00;20.40;74.70
29855;DHT22;16733;48.738;9.106;2022-08-01T22:39:25;20.40;74.90
29855;DHT22;16733;48.738;9.106;2022-08-01T22:41:54;20.40;75.10
29855;DHT22;16733;48.738;9.106;2022-08-01T22:44:28;20.40;75.50
29855;DHT22;16733;48.738;9.106;2022-08-01T22:47:03;20.30;75.80
29855;DHT22;16733;48.738;9.106;2022-08-01T22:52:59;20.20;76.30
29855;DHT22;16733;48.738;9.106;2022-08-01T23:02:14;20.00;77.00
29855;DHT22;16733;48.738;9.106;2022-08-01T23:04:47;20.00;76.80
29855;DHT22;16733;48.738;9.106;2022-08-01T23:07:22;19.90;77.20
29855;DHT22;16733;48.738;9.106;2022-08-01T23:09:49;19.90;77.60
29855;DHT22;16733;48.738;9.106;2022-08-01T23:15:42;19.80;78.50
29855;DHT22;16733;48.738;9.106;2022-08-01T23:18:08;19.80;78.40
29855;DHT22;16733;48.738;9.106;2022-08-01T23:23:57;19.80;79.30
29855;DHT22;16733;48.738;9.106;2022-08-01T23:26:25;19.70;79.10